Time;durP1;ratioP1;P1;durP2;ratioP2;P2;SDS_P1;SDS_P2;PMS_P1;PMS_P2;Temp;Humidity;BMP_temperature;BMP_pressure;BME280_temperature;BME280_humidity;BME280_pressure;Samples;Min_cycle;Max_cycle;Signal;HPM_P1;HPM_P2
2023/03/31 00:01:05;;;;;;;2.50;0.90;;;;;;;29.85;35.42;97327.09;7398837;19;20071;-72
2023/03/31 00:03:32;;;;;;;0.15;0.15;;;;;;;31.54;33.66;97313.84;7397531;19;20027;-71
2023/03/31 00:05:59;;;;;;;8.50;0.60;;;;;;;31.98;33.24;97304.13;7396093;19;20066;-72
2023/03/31 00:08:34;;;;;;;15.98;0.95;;;;;;;32.18;32.86;97292.31;7400943;19;20022;-71
2023/03/31 00:11:03;;;;;;;1.48;0.57;;;;;;;31.16;33.83;97288.47;7394903;19;20015;-71
2023/03/31 00:13:29;;;;;;;0.20;0.20;;;;;;;31.85;33.38;97272.84;7395676;19;20056;-71
2023/03/31 00:16:05;;;;;;;1.00;0.60;;;;;;;32.20;32.91;97260.66;7394142;19;20011;-71
2023/03/31 00:18:31;;;;;;;0.47;0.25;;;;;;;32.00;33.23;97258.09;7396257;19;20034;-71
2023/03/31 00:21:13;;;;;;;10.52;0.45;;;;;;;31.98;33.14;97249.41;7395961;19;20017;-72
2023/03/31 00:23:40;;;;;;;0.30;0.30;;;;;;;31.93;33.06;97247.81;7397360;19;20015;-72
2023/03/31 00:26:06;;;;;;;6.72;1.35;;;;;;;32.10;32.88;97240.28;7397112;19;20088;-72
2023/03/31 00:28:32;;;;;;;6.10;1.08;;;;;;;32.17;32.80;97233.22;7395091;19;20003;-72
2023/03/31 00:31:01;;;;;;;0.15;0.13;;;;;;;32.27;32.81;97219.00;7394070;19;20011;-72
2023/03/31 00:33:28;;;;;;;0.57;0.40;;;;;;;32.23;32.88;97212.47;7396307;19;20014;-71
2023/03/31 00:35:55;;;;;;;7.93;1.10;;;;;;;32.12;32.69;97208.63;7395465;19;20332;-70
2023/03/31 00:38:21;;;;;;;1.85;0.82;;;;;;;31.89;32.95;97204.56;7397418;19;20048;-69
2023/03/31 00:40:47;;;;;;;1.55;0.30;;;;;;;31.86;33.21;97193.69;7395620;19;20014;-70
2023/03/31 00:43:24;;;;;;;3.90;0.63;;;;;;;31.70;33.00;97181.84;7396575;19;20011;-70
2023/03/31 00:45:50;;;;;;;2.47;0.65;;;;;;;31.99;33.05;97178.88;7395927;19;20484;-71
2023/03/31 00:48:18;;;;;;;0.43;0.43;;;;;;;31.85;33.04;97175.69;7393994;19;20021;-70
2023/03/31 00:50:52;;;;;;;0.75;0.30;;;;;;;32.10;33.18;97180.53;7394202;19;20011;-71
2023/03/31 00:53:23;;;;;;;1.35;1.25;;;;;;;32.02;33.10;97173.88;7395838;19;20015;-70
2023/03/31 00:55:53;;;;;;;2.72;0.32;;;;;;;32.20;33.22;97165.59;7393990;19;20011;-70
2023/03/31 00:58:21;;;;;;;1.60;0.47;;;;;;;32.13;32.56;97155.38;7393807;19;20015;-70
2023/03/31 01:00:51;;;;;;;0.30;0.22;;;;;;;31.73;33.15;97157.44;7392224;19;20018;-69
2023/03/31 01:03:21;;;;;;;0.68;0.43;;;;;;;31.43;33.58;97149.63;7394786;19;20403;-70
2023/03/31 01:05:53;;;;;;;6.85;1.00;;;;;;;31.59;33.25;97137.00;7394143;19;20394;-71
2023/03/31 01:08:23;;;;;;;3.17;1.00;;;;;;;31.51;33.26;97131.06;7396759;19;20073;-71
2023/03/31 01:10:55;;;;;;;0.28;0.28;;;;;;;31.82;32.78;97127.38;7393560;19;20021;-70
2023/03/31 01:13:23;;;;;;;1.85;1.67;;;;;;;31.71;33.40;97108.44;7395632;19;20006;-70
2023/03/31 01:15:50;;;;;;;1.27;0.75;;;;;;;31.77;32.61;97099.94;7392133;19;20011;-70
2023/03/31 01:18:20;;;;;;;3.65;0.90;;;;;;;31.51;32.99;97085.03;7391718;19;20074;-70
2023/03/31 01:20:49;;;;;;;3.80;0.55;;;;;;;31.16;33.21;97081.41;7393375;19;20451;-70
2023/03/31 01:23:49;;;;;;;8.85;0.35;;;;;;;31.56;33.16;97069.28;7393855;19;20042;-70
2023/03/31 01:27:14;;;;;;;1.25;0.43;;;;;;;31.41;33.04;97048.16;7392763;19;20375;-71
2023/03/31 01:29:55;;;;;;;2.40;1.02;;;;;;;31.43;33.27;97046.06;7389008;19;20021;-70
2023/03/31 01:32:34;;;;;;;1.20;0.63;;;;;;;31.08;33.10;97035.22;7389116;19;20068;-70
2023/03/31 01:35:18;;;;;;;0.28;0.20;;;;;;;31.25;33.21;97019.75;7392356;19;20039;-70
2023/03/31 01:38:10;;;;;;;1.70;0.60;;;;;;;31.15;33.36;97015.94;7395811;19;20035;-70
2023/03/31 01:40:49;;;;;;;4.68;1.50;;;;;;;31.00;33.01;97012.06;7392593;19;20406;-70
2023/03/31 01:43:36;;;;;;;0.55;0.28;;;;;;;30.85;33.48;97004.50;7391248;19;20006;-69
2023/03/31 01:46:34;;;;;;;1.20;0.85;;;;;;;30.79;33.18;96997.91;7391513;19;20011;-70
2023/03/31 01:49:16;;;;;;;1.75;1.00;;;;;;;30.92;33.72;96983.16;7391245;19;20218;-70
2023/03/31 01:52:01;;;;;;;0.20;0.20;;;;;;;30.69;33.67;96986.91;7391281;19;20006;-70
2023/03/31 01:54:32;;;;;;;1.42;0.50;;;;;;;30.94;33.59;96976.69;7395608;19;20022;-70
2023/03/31 01:57:11;;;;;;;0.95;0.43;;;;;;;30.80;33.95;96967.75;7391443;19;20010;-70
2023/03/31 01:59:45;;;;;;;0.60;0.60;;;;;;;30.52;34.23;96956.34;7392596;19;20031;-69
2023/03/31 02:02:37;;;;;;;4.30;1.17;;;;;;;30.65;33.89;96949.47;7390889;19;20066;-70
2023/03/31 02:05:10;;;;;;;0.93;0.30;;;;;;;31.00;33.38;96943.06;7396745;19;20510;-70
2023/03/31 02:07:41;;;;;;;0.60;0.60;;;;;;;31.17;33.70;96938.34;7393417;19;20007;-70
2023/03/31 02:10:10;;;;;;;0.38;0.32;;;;;;;31.20;33.44;96926.22;7390950;19;20014;-70
2023/03/31 02:12:40;;;;;;;0.40;0.40;;;;;;;31.38;33.53;96912.16;7391299;19;20015;-70
2023/03/31 02:15:13;;;;;;;0.77;0.40;;;;;;;31.50;33.17;96922.44;7395056;19;20014;-71
2023/03/31 02:17:44;;;;;;;0.60;0.60;;;;;;;31.78;32.89;96899.91;7390391;19;20238;-71
2023/03/31 02:20:16;;;;;;;10.40;0.95;;;;;;;31.77;32.96;96892.72;7391464;19;20018;-71
2023/03/31 02:22:47;;;;;;;0.20;0.10;;;;;;;31.76;32.89;96873.97;7391178;19;20017;-72
2023/03/31 02:25:18;;;;;;;1.27;0.40;;;;;;;31.70;32.92;96868.13;7391822;19;20082;-71
2023/03/31 02:27:52;;;;;;;0.22;0.22;;;;;;;31.55;33.30;96866.44;7396757;19;20478;-72
2023/03/31 02:30:18;;;;;;;0.10;0.10;;;;;;;31.57;33.03;96857.84;7390086;19;20368;-72
2023/03/31 02:32:45;;;;;;;0.25;0.10;;;;;;;31.84;32.66;96842.44;7392109;19;20018;-71
2023/03/31 02:35:17;;;;;;;0.10;0.10;;;;;;;32.01;32.91;96841.28;7395004;19;20014;-72
2023/03/31 02:37:45;;;;;;;8.82;0.68;;;;;;;32.16;32.14;96829.25;7397127;19;20015;-71
2023/03/31 02:40:19;;;;;;;0.10;0.10;;;;;;;32.09;32.87;96818.38;7397178;19;20034;-71
2023/03/31 02:42:46;;;;;;;0.10;0.10;;;;;;;31.94;32.49;96808.06;7397198;19;20014;-71
2023/03/31 02:45:40;;;;;;;0.10;0.10;;;;;;;31.89;32.71;96795.75;7403332;19;20017;-71
2023/03/31 02:48:21;;;;;;;1.00;0.20;;;;;;;31.77;32.79;96800.59;7397761;19;20097;-72
2023/03/31 02:51:28;;;;;;;0.10;0.10;;;;;;;32.06;32.67;96790.97;7396026;19;20060;-72
2023/03/31 02:54:22;;;;;;;0.20;0.20;;;;;;;31.64;33.02;96788.16;7398349;19;20046;-71
2023/03/31 02:57:19;;;;;;;0.10;0.10;;;;;;;31.84;32.81;96776.22;7397559;19;20010;-71
2023/03/31 02:59:58;;;;;;;0.10;0.00;;;;;;;31.84;33.03;96764.72;7397204;19;20014;-71
2023/03/31 03:02:30;;;;;;;0.10;0.00;;;;;;;31.75;32.58;96766.03;7397942;19;20014;-70
2023/03/31 03:05:09;;;;;;;0.10;0.10;;;;;;;31.75;32.90;96757.41;7401490;19;20486;-70
2023/03/31 03:07:46;;;;;;;;;;;;;;;32.00;32.75;96753.44;7400331;19;20347;-70
2023/03/31 03:10:42;;;;;;;0.63;0.43;;;;;;;31.82;32.84;96733.00;7398702;19;20002;-70
2023/03/31 03:13:30;;;;;;;0.10;0.10;;;;;;;31.71;32.86;96725.66;7395767;19;20003;-71
2023/03/31 03:16:26;;;;;;;2.80;0.57;;;;;;;31.34;33.04;96716.50;7398814;19;20025;-70
2023/03/31 03:18:58;;;;;;;0.47;0.40;;;;;;;30.90;33.31;96703.56;7396970;19;20039;-69
2023/03/31 03:21:25;;;;;;;0.20;0.20;;;;;;;30.68;34.04;96706.75;7398120;19;20007;-70
2023/03/31 03:23:51;;;;;;;0.10;0.10;;;;;;;30.91;33.59;96694.22;7400495;19;20010;-70
2023/03/31 03:26:23;;;;;;;0.65;0.30;;;;;;;30.86;33.62;96686.22;7399196;19;20011;-70
2023/03/31 03:28:50;;;;;;;0.13;0.10;;;;;;;31.07;33.81;96674.38;7398378;19;20010;-71
2023/03/31 03:31:16;;;;;;;0.10;0.00;;;;;;;31.17;33.58;96665.16;7396807;19;20017;-70
2023/03/31 03:33:42;;;;;;;0.10;0.10;;;;;;;30.89;33.88;96662.59;7398598;19;20499;-70
2023/03/31 03:36:09;;;;;;;0.70;0.70;;;;;;;30.91;34.19;96654.00;7397068;19;20006;-71
2023/03/31 03:38:35;;;;;;;0.10;0.10;;;;;;;30.77;34.17;96650.88;7400837;19;20031;-71
2023/03/31 03:41:01;;;;;;;0.20;0.20;;;;;;;30.48;34.94;96661.16;7396212;19;20014;-70
2023/03/31 03:43:28;;;;;;;0.10;0.10;;;;;;;30.62;34.38;96646.31;7396730;19;20019;-69
2023/03/31 03:45:54;;;;;;;0.10;0.10;;;;;;;30.94;34.12;96646.13;7397408;19;20014;-70
2023/03/31 03:48:20;;;;;;;1.50;0.82;;;;;;;30.79;34.15;96627.91;7398081;19;20018;-70
2023/03/31 03:50:47;;;;;;;0.10;0.10;;;;;;;30.68;34.47;96629.16;7396107;19;20018;-70
2023/03/31 03:53:14;;;;;;;0.30;0.20;;;;;;;30.76;34.27;96626.41;7395985;19;20320;-70
2023/03/31 03:55:40;;;;;;;0.10;0.10;;;;;;;30.89;34.27;96622.34;7396892;19;20034;-70
2023/03/31 03:58:07;;;;;;;0.10;0.10;;;;;;;31.04;34.11;96611.78;7396482;19;20121;-69
2023/03/31 04:00:33;;;;;;;0.10;0.00;;;;;;;31.03;33.73;96605.31;7396710;19;20014;-69
2023/03/31 04:02:59;;;;;;;0.10;0.10;;;;;;;30.96;34.28;96609.53;7396546;19;20017;-69
2023/03/31 04:05:25;;;;;;;0.22;0.10;;;;;;;30.94;34.30;96595.13;7396600;19;20019;-70
2023/03/31 04:07:51;;;;;;;0.57;0.55;;;;;;;31.22;33.74;96595.53;7398757;19;20067;-69
2023/03/31 04:10:17;;;;;;;0.30;0.30;;;;;;;31.70;33.14;96588.97;7394351;19;20349;-70
2023/03/31 04:12:43;;;;;;;0.10;0.00;;;;;;;31.54;33.47;96585.88;7396020;19;20026;-69
2023/03/31 04:15:10;;;;;;;0.10;0.10;;;;;;;31.08;33.77;96586.00;7400777;19;20014;-69
2023/03/31 04:17:36;;;;;;;0.20;0.20;;;;;;;31.16;34.00;96583.22;7396041;19;20325;-69
2023/03/31 04:20:08;;;;;;;0.17;0.17;;;;;;;30.86;34.35;96583.53;7395771;19;20018;-65
2023/03/31 04:22:39;;;;;;;0.20;0.20;;;;;;;30.88;34.05;96579.94;7394810;19;20006;-66
2023/03/31 04:25:13;;;;;;;;;;;;;;;30.90;34.27;96574.94;7400946;19;20066;-66
2023/03/31 04:27:59;;;;;;;0.20;0.15;;;;;;;30.45;34.87;96570.63;7400269;19;19919;-66
2023/03/31 04:30:32;;;;;;;0.10;0.10;;;;;;;30.33;34.80;96564.69;7395421;19;20011;-66
2023/03/31 04:33:01;;;;;;;0.10;0.10;;;;;;;30.79;34.28;96549.59;7396118;19;20011;-66
2023/03/31 04:35:41;;;;;;;0.10;0.10;;;;;;;31.06;34.00;96555.03;7395955;19;20467;-66
2023/03/31 04:38:07;;;;;;;0.10;0.10;;;;;;;30.86;34.47;96549.03;7398974;19;20014;-65
2023/03/31 04:40:34;;;;;;;0.10;0.10;;;;;;;30.91;34.49;96547.66;7395903;19;20058;-65
2023/03/31 04:43:00;;;;;;;0.10;0.10;;;;;;;31.20;33.96;96538.00;7395491;19;20019;-65
2023/03/31 04:45:26;;;;;;;0.75;0.13;;;;;;;31.38;33.76;96526.69;7395984;19;20078;-66
2023/03/31 04:47:52;;;;;;;0.10;0.10;;;;;;;31.46;34.10;96537.63;7395462;19;20018;-66
2023/03/31 04:50:19;;;;;;;0.20;0.20;;;;;;;31.55;33.59;96532.69;7395141;19;20098;-67
2023/03/31 04:52:45;;;;;;;0.32;0.30;;;;;;;31.25;33.94;96527.97;7394277;19;20017;-66
2023/03/31 04:55:11;;;;;;;0.10;0.10;;;;;;;31.27;34.00;96528.00;7399998;19;20015;-66
2023/03/31 04:57:37;;;;;;;0.20;0.20;;;;;;;31.04;34.35;96516.91;7395152;19;20074;-65
2023/03/31 05:00:08;;;;;;;0.10;0.10;;;;;;;30.76;34.43;96514.34;7393739;19;20466;-64
2023/03/31 05:02:34;;;;;;;0.10;0.10;;;;;;;30.85;34.53;96518.06;7392994;19;20006;-67
2023/03/31 05:05:00;;;;;;;0.10;0.10;;;;;;;30.66;34.98;96506.31;7399452;19;20019;-66
2023/03/31 05:07:26;;;;;;;0.90;0.10;;;;;;;30.80;34.68;96507.97;7397060;19;20022;-66
2023/03/31 05:09:52;;;;;;;0.73;0.30;;;;;;;30.49;35.41;96509.66;7394613;19;20053;-66
2023/03/31 05:12:18;;;;;;;0.10;0.00;;;;;;;30.39;34.90;96503.72;7396153;19;20025;-66
2023/03/31 05:14:44;;;;;;;0.10;0.10;;;;;;;30.94;34.90;96502.41;7396728;19;20010;-67
2023/03/31 05:17:10;;;;;;;0.32;0.20;;;;;;;31.32;34.19;96494.25;7397227;19;20010;-67
2023/03/31 05:19:37;;;;;;;0.10;0.10;;;;;;;31.51;33.96;96498.13;7396690;19;20033;-66
2023/03/31 05:22:03;;;;;;;0.10;0.10;;;;;;;31.40;33.88;96498.00;7392765;19;20018;-66
2023/03/31 05:24:29;;;;;;;0.10;0.10;;;;;;;31.01;34.50;96501.06;7395366;19;20006;-67
2023/03/31 05:26:56;;;;;;;0.10;0.10;;;;;;;30.47;35.44;96498.13;7397434;19;20021;-68
2023/03/31 05:29:23;;;;;;;0.10;0.10;;;;;;;30.01;35.72;96500.94;7396740;19;20347;-68
2023/03/31 05:31:50;;;;;;;0.10;0.08;;;;;;;29.21;36.58;96503.72;7393817;19;20011;-68
2023/03/31 05:34:16;;;;;;;0.38;0.10;;;;;;;29.52;36.20;96495.72;7395375;19;20676;-68
2023/03/31 05:36:42;;;;;;;0.10;0.10;;;;;;;29.87;36.25;96492.81;7396754;19;20081;-68
2023/03/31 05:39:09;;;;;;;0.10;0.10;;;;;;;30.70;34.81;96486.28;7395871;19;20007;-68
2023/03/31 05:41:35;;;;;;;0.30;0.10;;;;;;;30.61;35.42;96496.19;7393786;19;20007;-68
2023/03/31 05:44:01;;;;;;;0.10;0.10;;;;;;;30.70;34.93;96503.50;7395088;19;20010;-66
2023/03/31 05:46:27;;;;;;;9.20;0.20;;;;;;;30.95;34.88;96495.97;7393759;19;20018;-67
2023/03/31 05:48:53;;;;;;;0.10;0.00;;;;;;;31.30;34.73;96500.00;7394082;19;20030;-66
2023/03/31 05:51:20;;;;;;;0.10;0.00;;;;;;;28.95;36.95;96500.28;7390469;19;20015;-67
2023/03/31 05:53:46;;;;;;;0.10;0.10;;;;;;;26.90;39.81;96498.56;7394779;19;20034;-67
2023/03/31 05:56:12;;;;;;;0.35;0.35;;;;;;;26.71;40.40;96499.41;7393033;19;20052;-67
2023/03/31 05:58:38;;;;;;;0.10;0.10;;;;;;;28.74;37.89;96500.53;7393514;19;20010;-66
2023/03/31 06:01:06;;;;;;;0.20;0.20;;;;;;;29.48;36.70;96495.63;7391902;19;20019;-67
2023/03/31 06:03:37;;;;;;;0.10;0.10;;;;;;;29.66;36.63;96502.44;7394981;19;20070;-67
2023/03/31 06:06:13;;;;;;;;;;;;;;;29.89;36.49;96500.72;7393833;19;20019;-67
2023/03/31 06:08:40;;;;;;;0.10;0.10;;;;;;;29.75;36.52;96501.22;7396950;19;20328;-66
2023/03/31 06:11:08;;;;;;;0.10;0.10;;;;;;;29.89;36.63;96495.72;7391103;19;20066;-66
2023/03/31 06:13:35;;;;;;;0.10;0.10;;;;;;;30.05;36.57;96494.53;7399388;19;20010;-66
2023/03/31 06:16:02;;;;;;;3.08;0.20;;;;;;;30.10;36.02;96498.94;7400415;19;20015;-66
2023/03/31 06:18:30;;;;;;;0.75;0.10;;;;;;;30.11;36.00;96498.25;7400673;19;20014;-65
2023/03/31 06:20:57;;;;;;;0.10;0.10;;;;;;;30.17;36.16;96497.63;7400372;19;20013;-64
2023/03/31 06:23:24;;;;;;;0.15;0.10;;;;;;;30.19;36.37;96500.53;7400257;19;20400;-65
2023/03/31 06:25:51;;;;;;;1.75;0.50;;;;;;;30.90;35.08;96497.34;7401495;19;20015;-66
2023/03/31 06:28:19;;;;;;;1.60;0.30;;;;;;;30.98;35.05;96496.72;7400552;19;20031;-65
2023/03/31 06:30:45;;;;;;;0.22;0.10;;;;;;;30.96;35.40;96503.16;7398957;19;20007;-65
2023/03/31 06:33:12;;;;;;;0.20;0.15;;;;;;;30.88;35.64;96508.09;7400948;19;20025;-65
2023/03/31 06:35:39;;;;;;;1.08;0.55;;;;;;;30.70;35.72;96502.78;7402867;19;20011;-65
2023/03/31 06:38:06;;;;;;;0.10;0.10;;;;;;;30.65;35.82;96507.75;7401340;19;20025;-64
2023/03/31 06:40:32;;;;;;;0.10;0.10;;;;;;;29.20;37.25;96513.00;7401754;19;20029;-64
2023/03/31 06:42:59;;;;;;;0.30;0.30;;;;;;;28.47;38.37;96511.38;7402374;19;20055;-64
2023/03/31 06:45:25;;;;;;;0.15;0.15;;;;;;;28.79;37.81;96508.53;7402191;19;20038;-64
2023/03/31 06:47:51;;;;;;;0.75;0.50;;;;;;;28.65;38.29;96516.09;7401645;19;20481;-64
2023/03/31 06:50:17;;;;;;;1.35;0.35;;;;;;;29.30;37.75;96516.09;7396121;19;20011;-64
2023/03/31 06:52:43;;;;;;;1.38;0.82;;;;;;;30.11;36.81;96509.72;7399203;19;20030;-64
2023/03/31 06:55:11;;;;;;;0.32;0.32;;;;;;;30.08;36.78;96516.88;7402687;19;20014;-64
2023/03/31 06:57:38;;;;;;;0.57;0.57;;;;;;;30.23;36.72;96521.41;7398944;19;20038;-64
2023/03/31 07:00:06;;;;;;;0.22;0.22;;;;;;;30.24;36.71;96517.13;7398403;19;20030;-64
2023/03/31 07:02:32;;;;;;;0.68;0.00;;;;;;;30.40;36.73;96516.69;7400201;19;20010;-64
2023/03/31 07:04:58;;;;;;;1.90;0.40;;;;;;;30.40;36.60;96522.44;7403050;19;20043;-64
2023/03/31 07:07:25;;;;;;;0.20;0.10;;;;;;;30.63;36.52;96524.22;7401177;19;20031;-64
2023/03/31 07:09:51;;;;;;;0.20;0.20;;;;;;;30.70;36.07;96528.63;7398573;19;20086;-64
2023/03/31 07:12:17;;;;;;;0.25;0.20;;;;;;;30.89;36.39;96523.91;7398778;19;20015;-64
2023/03/31 07:14:43;;;;;;;3.85;0.17;;;;;;;31.05;35.87;96524.13;7401685;19;20082;-64
2023/03/31 07:17:09;;;;;;;1.23;0.43;;;;;;;30.93;35.99;96527.56;7398226;19;20017;-63
2023/03/31 07:19:36;;;;;;;0.30;0.20;;;;;;;30.93;36.25;96529.72;7398289;19;20406;-63
2023/03/31 07:22:03;;;;;;;0.17;0.10;;;;;;;30.90;36.36;96526.09;7398836;19;20443;-63
2023/03/31 07:24:29;;;;;;;0.40;0.20;;;;;;;30.96;35.88;96534.78;7400718;19;20019;-63
2023/03/31 07:26:55;;;;;;;0.30;0.22;;;;;;;31.00;35.86;96540.59;7400944;19;20445;-63
2023/03/31 07:29:22;;;;;;;0.80;0.20;;;;;;;31.00;36.22;96537.72;7397035;19;20006;-64
2023/03/31 07:31:48;;;;;;;0.17;0.17;;;;;;;31.04;36.30;96534.91;7395814;19;20039;-63
2023/03/31 07:34:14;;;;;;;0.10;0.08;;;;;;;31.22;35.97;96538.03;7400271;19;20035;-63
2023/03/31 07:36:40;;;;;;;0.50;0.30;;;;;;;31.28;35.76;96546.00;7398328;19;20015;-63
2023/03/31 07:39:06;;;;;;;2.30;0.25;;;;;;;31.49;35.38;96541.25;7397264;19;20320;-63
2023/03/31 07:41:33;;;;;;;0.13;0.10;;;;;;;31.63;35.81;96539.25;7397180;19;20022;-63
2023/03/31 07:43:59;;;;;;;0.10;0.10;;;;;;;31.65;35.18;96536.41;7397558;19;20015;-63
2023/03/31 07:46:27;;;;;;;0.10;0.10;;;;;;;31.86;35.67;96540.22;7396223;19;20014;-63
2023/03/31 07:48:55;;;;;;;0.10;0.10;;;;;;;32.08;35.36;96543.34;7397235;19;20498;-62
2023/03/31 07:51:25;;;;;;;0.57;0.10;;;;;;;32.14;35.67;96543.38;7395862;19;20086;-62
2023/03/31 07:53:51;;;;;;;2.03;0.55;;;;;;;32.32;35.02;96546.44;7398641;19;20020;-62
2023/03/31 07:56:20;;;;;;;2.55;0.20;;;;;;;32.41;35.23;96550.84;7395556;19;20363;-62
2023/03/31 07:58:46;;;;;;;0.57;0.30;;;;;;;32.30;34.88;96551.47;7397308;19;20010;-62
2023/03/31 08:01:17;;;;;;;4.65;0.65;;;;;;;32.34;34.58;96555.09;7396527;19;20444;-62
2023/03/31 08:03:45;;;;;;;2.35;0.20;;;;;;;32.17;34.65;96553.50;7398602;19;20047;-62
2023/03/31 08:06:18;;;;;;;0.10;0.10;;;;;;;32.00;34.75;96557.66;7396874;19;20014;-63
2023/03/31 08:08:44;;;;;;;0.68;0.38;;;;;;;31.84;34.53;96566.09;7401172;19;20030;-63
2023/03/31 08:11:11;;;;;;;0.90;0.20;;;;;;;31.80;34.80;96563.19;7395632;19;20106;-62
2023/03/31 08:13:37;;;;;;;0.95;0.32;;;;;;;32.17;34.63;96559.28;7397643;19;20045;-62
2023/03/31 08:16:03;;;;;;;0.10;0.10;;;;;;;32.16;34.59;96557.84;7396313;19;20479;-62
2023/03/31 08:18:29;;;;;;;2.15;0.40;;;;;;;31.98;34.92;96554.78;7395699;19;20027;-62
2023/03/31 08:20:55;;;;;;;1.40;0.10;;;;;;;32.44;34.39;96558.09;7396127;19;20021;-62
2023/03/31 08:23:22;;;;;;;0.47;0.25;;;;;;;32.52;34.17;96566.09;7397061;19;20011;-62
2023/03/31 08:25:48;;;;;;;0.47;0.32;;;;;;;32.33;34.63;96570.94;7397197;19;20344;-62
2023/03/31 08:28:14;;;;;;;0.20;0.20;;;;;;;32.06;34.30;96577.88;7395592;19;20014;-62
2023/03/31 08:30:41;;;;;;;0.95;0.60;;;;;;;32.06;34.63;96569.25;7394586;19;20018;-62
2023/03/31 08:33:08;;;;;;;1.17;0.85;;;;;;;32.31;34.30;96575.97;7397110;19;20040;-62
2023/03/31 08:35:34;;;;;;;2.17;0.63;;;;;;;32.72;34.22;96575.63;7393750;19;20017;-62
2023/03/31 08:38:01;;;;;;;0.68;0.20;;;;;;;32.82;34.07;96575.69;7399168;19;20010;-62
2023/03/31 08:40:30;;;;;;;0.65;0.20;;;;;;;32.81;34.13;96577.13;7395882;19;20010;-63
2023/03/31 08:43:15;;;;;;;6.38;0.88;;;;;;;32.84;33.55;96587.25;7396410;19;20006;-63
2023/03/31 08:45:45;;;;;;;0.38;0.20;;;;;;;32.70;33.78;96583.53;7395837;19;20019;-62
2023/03/31 08:48:28;;;;;;;1.50;0.30;;;;;;;32.96;34.04;96583.00;7395580;19;20018;-63
2023/03/31 08:51:20;;;;;;;0.85;0.22;;;;;;;33.14;33.53;96586.00;7394271;19;20033;-63
2023/03/31 08:53:57;;;;;;;1.85;0.45;;;;;;;33.25;33.40;96594.00;7397164;19;20082;-63
2023/03/31 08:56:26;;;;;;;0.10;0.10;;;;;;;33.53;33.39;96596.34;7394747;19;20020;-63
2023/03/31 08:58:52;;;;;;;0.98;0.73;;;;;;;33.67;33.52;96590.66;7396079;19;20035;-63
2023/03/31 09:01:40;;;;;;;2.83;0.70;;;;;;;33.74;33.31;96595.00;7396277;19;20013;-63
2023/03/31 09:04:24;;;;;;;0.20;0.10;;;;;;;33.88;32.59;96603.72;7397248;19;20018;-63
2023/03/31 09:07:23;;;;;;;2.40;0.43;;;;;;;34.15;32.68;96599.50;7396344;19;20066;-64
2023/03/31 09:09:55;;;;;;;0.95;0.95;;;;;;;34.34;32.18;96606.75;7394363;19;20021;-64
2023/03/31 09:12:34;;;;;;;1.70;0.50;;;;;;;34.45;31.84;96616.16;7395506;19;20038;-64
2023/03/31 09:15:04;;;;;;;0.10;0.05;;;;;;;34.61;32.27;96621.97;7399009;19;20006;-63
2023/03/31 09:17:33;;;;;;;0.35;0.35;;;;;;;34.60;32.65;96620.53;7394709;19;20038;-64
2023/03/31 09:20:12;;;;;;;3.65;0.40;;;;;;;34.43;32.42;96629.88;7392096;19;20427;-63
2023/03/31 09:22:46;;;;;;;0.40;0.20;;;;;;;34.49;31.98;96626.97;7394859;19;20353;-64
2023/03/31 09:25:18;;;;;;;0.28;0.20;;;;;;;34.34;32.16;96629.88;7399114;19;20024;-64
2023/03/31 09:27:46;;;;;;;0.22;0.22;;;;;;;34.37;31.79;96635.66;7398779;19;20349;-64
2023/03/31 09:30:30;;;;;;;0.63;0.35;;;;;;;34.34;31.74;96644.31;7393856;19;20011;-64
2023/03/31 09:33:16;;;;;;;1.95;0.30;;;;;;;34.35;32.14;96651.53;7394516;19;20010;-64
2023/03/31 09:35:42;;;;;;;0.10;0.10;;;;;;;34.29;31.45;96645.00;7393071;19;20044;-64
2023/03/31 09:38:11;;;;;;;3.75;0.55;;;;;;;34.22;31.61;96647.16;7396309;19;20498;-64
2023/03/31 09:40:38;;;;;;;0.57;0.28;;;;;;;34.31;31.86;96654.41;7392715;19;20377;-64
2023/03/31 09:43:07;;;;;;;1.30;0.65;;;;;;;34.14;32.05;96649.31;7391379;19;20463;-64
2023/03/31 09:45:34;;;;;;;0.20;0.20;;;;;;;33.86;32.11;96660.72;7392356;19;20027;-64
2023/03/31 09:48:10;;;;;;;0.10;0.10;;;;;;;34.05;31.85;96663.00;7400592;19;20081;-65
2023/03/31 09:50:44;;;;;;;0.63;0.30;;;;;;;33.91;32.03;96670.88;7400210;19;20006;-65
2023/03/31 09:53:32;;;;;;;0.63;0.43;;;;;;;33.82;32.24;96675.16;7400923;19;20459;-65
2023/03/31 09:56:04;;;;;;;1.55;0.32;;;;;;;34.07;31.66;96671.66;7402057;19;20022;-65
2023/03/31 09:58:39;;;;;;;0.77;0.70;;;;;;;34.46;31.65;96675.38;7401514;19;20015;-65
2023/03/31 10:01:08;;;;;;;2.17;0.80;;;;;;;34.44;31.84;96678.28;7400807;19;20027;-65
2023/03/31 10:03:48;;;;;;;5.38;0.20;;;;;;;34.44;31.42;96689.13;7402068;19;20076;-65
2023/03/31 10:06:16;;;;;;;0.20;0.20;;;;;;;34.57;31.10;96690.63;7400725;19;20010;-65
2023/03/31 10:08:50;;;;;;;0.40;0.22;;;;;;;34.62;31.52;96686.28;7405533;19;20010;-66
2023/03/31 10:11:17;;;;;;;0.30;0.30;;;;;;;34.65;30.75;96690.66;7398553;19;20066;-65
2023/03/31 10:14:04;;;;;;;1.75;0.52;;;;;;;34.02;31.63;96692.59;7401704;19;20347;-66
2023/03/31 10:16:43;;;;;;;0.20;0.15;;;;;;;33.75;31.68;96688.81;7399964;19;20114;-66
2023/03/31 10:19:20;;;;;;;0.10;0.00;;;;;;;34.01;31.69;96703.44;7400596;19;20013;-65
2023/03/31 10:21:54;;;;;;;0.15;0.10;;;;;;;33.82;32.13;96710.53;7398492;19;20361;-66
2023/03/31 10:24:20;;;;;;;0.20;0.20;;;;;;;33.79;32.07;96717.00;7403445;19;20011;-67
2023/03/31 10:26:48;;;;;;;0.10;0.10;;;;;;;33.79;32.38;96706.16;7400232;19;20014;-69
2023/03/31 10:29:27;;;;;;;2.92;0.20;;;;;;;33.85;32.68;96717.03;7400490;19;20010;-69
2023/03/31 10:31:53;;;;;;;0.10;0.10;;;;;;;33.92;32.87;96719.22;7398348;19;20011;-69
2023/03/31 10:34:22;;;;;;;0.20;0.20;;;;;;;33.87;33.23;96714.91;7403118;19;20018;-69
2023/03/31 10:36:53;;;;;;;0.10;0.00;;;;;;;33.84;33.05;96719.19;7399325;19;20014;-68
2023/03/31 10:39:19;;;;;;;;;;;;;;;33.90;32.94;96722.13;7400423;19;20022;-67
2023/03/31 10:41:52;;;;;;;0.13;0.03;;;;;;;34.13;33.04;96731.66;7400140;19;19929;-68
2023/03/31 10:44:33;;;;;;;0.10;0.10;;;;;;;34.25;33.05;96732.41;7401587;19;20048;-68
2023/03/31 10:47:32;;;;;;;2.30;0.20;;;;;;;34.66;32.83;96733.28;7399719;19;20006;-68
2023/03/31 10:49:58;;;;;;;0.10;0.10;;;;;;;34.57;33.38;96736.88;7397980;19;20017;-68
2023/03/31 10:52:26;;;;;;;0.20;0.10;;;;;;;34.68;33.23;96741.97;7399077;19;20010;-68
2023/03/31 10:54:58;;;;;;;0.10;0.10;;;;;;;34.66;32.62;96756.41;7402963;19;20010;-66
2023/03/31 10:58:00;;;;;;;0.43;0.43;;;;;;;34.31;32.37;96746.88;7399174;19;20015;-67
2023/03/31 11:00:29;;;;;;;6.22;0.57;;;;;;;34.27;32.87;96761.31;7398594;19;20066;-59
2023/03/31 11:03:20;;;;;;;0.40;0.10;;;;;;;33.98;32.65;96756.09;7399198;19;20019;-69
2023/03/31 11:05:55;;;;;;;0.25;0.10;;;;;;;33.81;33.44;96766.81;7401998;19;20103;-70
2023/03/31 11:08:24;;;;;;;0.65;0.10;;;;;;;34.18;32.90;96762.72;7399191;19;20019;-70
2023/03/31 11:11:11;;;;;;;1.10;0.30;;;;;;;34.28;33.22;96765.63;7398351;19;20023;-70
2023/03/31 11:14:07;;;;;;;0.17;0.10;;;;;;;34.63;33.53;96769.41;7400013;19;20035;-70
2023/03/31 11:16:59;;;;;;;2.45;0.32;;;;;;;33.85;34.11;96778.38;7398600;19;20018;-69
2023/03/31 11:19:50;;;;;;;0.15;0.10;;;;;;;32.30;35.79;96784.78;7397529;19;20655;-71
2023/03/31 11:22:29;;;;;;;2.47;0.10;;;;;;;32.68;34.75;96783.09;7399418;19;20646;-70
2023/03/31 11:25:23;;;;;;;2.33;0.73;;;;;;;33.26;33.82;96794.53;7401714;19;20429;-69
2023/03/31 11:28:05;;;;;;;8.85;1.15;;;;;;;33.05;33.72;96795.06;7398758;19;20014;-70
2023/03/31 11:30:54;;;;;;;1.20;0.28;;;;;;;32.82;33.31;96808.47;7398015;19;20029;-70
2023/03/31 11:34:06;;;;;;;2.90;1.02;;;;;;;32.46;33.51;96808.78;7399313;19;20356;-70
2023/03/31 11:36:57;;;;;;;2.33;1.15;;;;;;;31.40;34.39;96813.66;7396013;19;20019;-70
2023/03/31 11:39:55;;;;;;;0.75;0.55;;;;;;;30.03;35.39;96818.84;7398108;19;20496;-69
2023/03/31 11:42:50;;;;;;;2.95;0.43;;;;;;;31.79;34.45;96826.53;7398003;19;20082;-69
2023/03/31 11:45:32;;;;;;;4.80;0.40;;;;;;;32.46;33.49;96828.94;7397332;19;20014;-70
2023/03/31 11:48:05;;;;;;;0.10;0.10;;;;;;;32.81;33.43;96830.81;7396102;19;20474;-70
2023/03/31 11:50:38;;;;;;;0.60;0.60;;;;;;;33.34;33.02;96842.91;7396976;19;20352;-70
2023/03/31 11:53:31;;;;;;;1.20;0.40;;;;;;;33.86;32.69;96834.72;7398048;19;20014;-69
2023/03/31 11:56:01;;;;;;;0.63;0.40;;;;;;;34.05;32.61;96832.69;7396302;19;20420;-68
2023/03/31 11:58:52;;;;;;;0.30;0.10;;;;;;;33.92;31.93;96839.81;7396257;19;20022;-69